Time;durP1;ratioP1;P1;durP2;ratioP2;P2;SDS_P1;SDS_P2;PMS_P1;PMS_P2;Temp;Humidity;BMP_temperature;BMP_pressure;BME280_temperature;BME280_humidity;BME280_pressure;Samples;Min_cycle;Max_cycle;Signal;HPM_P1;HPM_P2
2022/08/09 00:00:19;;;;;;;;;22.75;22.75;;;;;;;;5193856;28;8853;-79
2022/08/09 00:02:52;;;;;;;;;22.25;22.25;;;;;;;;5211003;28;8802;-79
2022/08/09 00:05:23;;;;;;;;;19.75;19.75;;;;;;;;5193277;28;8849;-81
2022/08/09 00:07:54;;;;;;;;;20.50;20.50;;;;;;;;5193526;28;8767;-80
2022/08/09 00:10:25;;;;;;;;;38.00;34.00;;;;;;;;5157288;28;8809;-80
2022/08/09 00:12:57;;;;;;;;;62.40;51.00;;;;;;;;5173349;28;8832;-82
2022/08/09 00:15:46;;;;;;;;;49.20;42.00;;;;;;;;5189470;28;8821;-82
2022/08/09 00:18:17;;;;;;;;;49.40;42.20;;;;;;;;5174436;28;8797;-83
2022/08/09 00:21:07;;;;;;;;;44.80;37.00;;;;;;;;5192680;28;8781;-82
2022/08/09 00:23:38;;;;;;;;;22.25;21.75;;;;;;;;5173772;28;9642;-83
2022/08/09 00:26:28;;;;;;;;;15.50;15.50;;;;;;;;5175726;28;8812;-81
2022/08/09 00:29:02;;;;;;;;;19.50;19.50;;;;;;;;5190516;28;8862;-80
2022/08/09 00:31:34;;;;;;;;;13.00;13.00;;;;;;;;5209959;28;8902;-81
2022/08/09 00:34:05;;;;;;;;;14.75;14.75;;;;;;;;5193403;28;8826;-81
2022/08/09 00:36:36;;;;;;;;;13.00;13.00;;;;;;;;5193645;28;8798;-81
2022/08/09 00:39:08;;;;;;;;;17.25;17.25;;;;;;;;5176883;28;8783;-81
2022/08/09 00:41:39;;;;;;;;;12.25;12.25;;;;;;;;5176798;28;8806;-81
2022/08/09 00:44:11;;;;;;;;;14.50;14.50;;;;;;;;5172973;28;8898;-81
2022/08/09 00:46:42;;;;;;;;;14.50;14.50;;;;;;;;5163428;28;8791;-82
2022/08/09 00:49:13;;;;;;;;;11.00;11.00;;;;;;;;5193448;28;8783;-82
2022/08/09 00:51:44;;;;;;;;;16.00;16.00;;;;;;;;5209602;28;9494;-83
2022/08/09 00:54:16;;;;;;;;;16.25;16.25;;;;;;;;5192664;28;11494;-82
2022/08/09 00:56:47;;;;;;;;;13.00;13.00;;;;;;;;5176741;28;8787;-83
2022/08/09 00:59:19;;;;;;;;;19.00;19.00;;;;;;;;5192976;28;8783;-82
2022/08/09 01:02:08;;;;;;;;;27.50;27.50;;;;;;;;5197130;28;8798;-81
2022/08/09 01:04:48;;;;;;;;;15.50;15.00;;;;;;;;5202293;28;8827;-80
2022/08/09 01:07:38;;;;;;;;;13.75;13.75;;;;;;;;5210234;28;8810;-79
2022/08/09 01:10:19;;;;;;;;;14.50;14.50;;;;;;;;5192801;28;8803;-79
2022/08/09 01:13:07;;;;;;;;;14.00;13.75;;;;;;;;5198649;28;8971;-84
2022/08/09 01:15:43;;;;;;;;;10.00;10.00;;;;;;;;5190670;28;8843;-84
2022/08/09 01:18:33;;;;;;;;;15.00;15.00;;;;;;;;5191397;28;9671;-84
2022/08/09 01:21:05;;;;;;;;;12.00;12.00;;;;;;;;5160762;28;8807;-84
2022/08/09 01:23:46;;;;;;;;;6.00;6.00;;;;;;;;5168129;28;8801;-84
2022/08/09 01:26:55;;;;;;;;;9.00;9.00;;;;;;;;5173150;28;8783;-83
2022/08/09 01:29:48;;;;;;;;;15.00;15.00;;;;;;;;5185619;28;8886;-79
2022/08/09 01:32:20;;;;;;;;;14.50;14.50;;;;;;;;5185550;28;8776;-80
2022/08/09 01:34:52;;;;;;;;;9.25;9.25;;;;;;;;5193866;28;8866;-79
2022/08/09 01:37:43;;;;;;;;;9.00;9.00;;;;;;;;5231807;28;8785;-79
2022/08/09 01:40:15;;;;;;;;;19.00;19.00;;;;;;;;5218478;28;8902;-81
2022/08/09 01:42:48;;;;;;;;;16.00;16.00;;;;;;;;5199492;28;8823;-78
2022/08/09 01:45:39;;;;;;;;;56.60;47.00;;;;;;;;5170403;28;8801;-78
2022/08/09 01:48:10;;;;;;;;;14.00;14.00;;;;;;;;5183972;28;8819;-79
2022/08/09 01:50:43;;;;;;;;;15.75;15.75;;;;;;;;5185120;28;8785;-77
2022/08/09 01:53:16;;;;;;;;;11.75;11.75;;;;;;;;5151470;28;8823;-77
2022/08/09 01:55:49;;;;;;;;;11.00;10.75;;;;;;;;5185811;28;8792;-77
2022/08/09 01:58:20;;;;;;;;;21.50;21.50;;;;;;;;5187943;28;8813;-78
2022/08/09 02:00:52;;;;;;;;;8.00;7.67;;;;;;;;5186178;28;8866;-78
2022/08/09 02:03:24;;;;;;;;;17.00;17.00;;;;;;;;5204042;28;8800;-76
2022/08/09 02:05:57;;;;;;;;;9.00;9.00;;;;;;;;5171012;28;8805;-81
2022/08/09 02:08:47;;;;;;;;;7.00;7.00;;;;;;;;5204662;28;8796;-79
2022/08/09 02:11:18;;;;;;;;;7.50;7.50;;;;;;;;5204401;28;8851;-77
2022/08/09 02:14:10;;;;;;;;;4.00;4.00;;;;;;;;5175884;28;8893;-77
2022/08/09 02:16:43;;;;;;;;;11.25;11.25;;;;;;;;5167959;28;9562;-78
2022/08/09 02:19:14;;;;;;;;;10.25;10.25;;;;;;;;5184871;28;8822;-76
2022/08/09 02:22:08;;;;;;;;;4.50;4.50;;;;;;;;5190106;28;8810;-77
2022/08/09 02:24:42;;;;;;;;;2.00;2.00;;;;;;;;5204078;28;8805;-77
2022/08/09 02:27:33;;;;;;;;;5.00;5.00;;;;;;;;5203980;28;8808;-77
2022/08/09 02:30:05;;;;;;;;;4.75;4.75;;;;;;;;5204027;28;8978;-80
2022/08/09 02:32:39;;;;;;;;;6.00;6.00;;;;;;;;5204251;28;8793;-80
2022/08/09 02:35:15;;;;;;;;;5.50;5.50;;;;;;;;5192596;28;8819;-80
2022/08/09 02:37:49;;;;;;;;;7.25;7.25;;;;;;;;5167339;28;8779;-79
2022/08/09 02:40:21;;;;;;;;;4.50;4.50;;;;;;;;5185163;28;8843;-80
2022/08/09 02:42:54;;;;;;;;;4.25;4.25;;;;;;;;5187412;28;8831;-82
2022/08/09 02:45:28;;;;;;;;;8.75;8.75;;;;;;;;5187569;28;8803;-81
2022/08/09 02:48:07;;;;;;;;;7.50;7.50;;;;;;;;5187521;28;9526;-82
2022/08/09 02:50:41;;;;;;;;;10.50;10.50;;;;;;;;5187607;28;9534;-81
2022/08/09 02:53:19;;;;;;;;;5.75;5.75;;;;;;;;5184643;28;8898;-85
2022/08/09 02:55:51;;;;;;;;;18.25;18.25;;;;;;;;5166215;28;8827;-83
2022/08/09 02:58:24;;;;;;;;;33.00;31.80;;;;;;;;5187058;28;8812;-80
2022/08/09 03:00:57;;;;;;;;;7.50;7.50;;;;;;;;5185049;28;8791;-79
2022/08/09 03:03:28;;;;;;;;;17.25;17.00;;;;;;;;5203624;28;8887;-79
2022/08/09 03:06:01;;;;;;;;;8.50;7.75;;;;;;;;5203552;28;8853;-78
2022/08/09 03:08:33;;;;;;;;;8.75;8.75;;;;;;;;5187252;28;8797;-78
2022/08/09 03:11:05;;;;;;;;;20.00;19.75;;;;;;;;5202655;28;8815;-79
2022/08/09 03:13:37;;;;;;;;;58.00;46.40;;;;;;;;5186585;28;9539;-80
2022/08/09 03:16:09;;;;;;;;;11.00;11.00;;;;;;;;5192381;28;8861;-78
2022/08/09 03:18:41;;;;;;;;;23.25;21.00;;;;;;;;5183455;28;8820;-85
2022/08/09 03:21:16;;;;;;;;;12.75;12.75;;;;;;;;5190518;28;8827;-84
2022/08/09 03:23:48;;;;;;;;;3.75;3.75;;;;;;;;5172333;28;8848;-80
2022/08/09 03:26:38;;;;;;;;;0.00;0.00;;;;;;;;5191476;28;8801;-80
2022/08/09 03:29:10;;;;;;;;;5.75;5.75;;;;;;;;5207236;28;8792;-83
2022/08/09 03:31:42;;;;;;;;;4.00;4.00;;;;;;;;5207611;28;8784;-80
2022/08/09 03:34:13;;;;;;;;;5.50;5.25;;;;;;;;5191025;28;8832;-81
2022/08/09 03:36:45;;;;;;;;;2.00;2.00;;;;;;;;5169496;28;8803;-79
2022/08/09 03:39:16;;;;;;;;;0.75;0.75;;;;;;;;5186144;28;8795;-79
2022/08/09 03:41:47;;;;;;;;;0.67;0.67;;;;;;;;5187164;28;8838;-79
2022/08/09 03:44:18;;;;;;;;;0.00;0.00;;;;;;;;5191349;28;10802;-78
2022/08/09 03:46:49;;;;;;;;;1.00;1.00;;;;;;;;5193486;28;8791;-79
2022/08/09 03:49:20;;;;;;;;;1.00;1.00;;;;;;;;5192618;28;8864;-79
2022/08/09 03:51:58;;;;;;;;;0.75;0.75;;;;;;;;5171959;28;8807;-76
2022/08/09 03:54:49;;;;;;;;;1.00;1.00;;;;;;;;5186011;28;9627;-75
2022/08/09 03:57:20;;;;;;;;;0.00;0.00;;;;;;;;5187369;28;9635;-75
2022/08/09 03:59:52;;;;;;;;;0.00;0.00;;;;;;;;5192251;28;8822;-78
2022/08/09 04:02:24;;;;;;;;;0.00;0.00;;;;;;;;5221726;28;8782;-78
2022/08/09 04:04:57;;;;;;;;;0.00;0.00;;;;;;;;5194449;28;8871;-84
2022/08/09 04:07:29;;;;;;;;;10.50;10.50;;;;;;;;5212713;28;8824;-84
2022/08/09 04:10:00;;;;;;;;;0.00;0.00;;;;;;;;5190265;28;8815;-85
2022/08/09 04:12:31;;;;;;;;;0.00;0.00;;;;;;;;5206267;28;8816;-85
2022/08/09 04:15:02;;;;;;;;;0.00;0.00;;;;;;;;5206035;28;8927;-83
2022/08/09 04:17:33;;;;;;;;;0.00;0.00;;;;;;;;5206489;28;8781;-79
2022/08/09 04:20:06;;;;;;;;;0.00;0.00;;;;;;;;5205307;28;8788;-80
2022/08/09 04:22:37;;;;;;;;;0.00;0.00;;;;;;;;5202258;28;8927;-83
2022/08/09 04:25:08;;;;;;;;;0.00;0.00;;;;;;;;5171365;28;8919;-80
2022/08/09 04:27:42;;;;;;;;;0.00;0.00;;;;;;;;5180782;28;9543;-81
2022/08/09 04:30:14;;;;;;;;;0.00;0.00;;;;;;;;5188375;28;8823;-82
2022/08/09 04:32:45;;;;;;;;;0.00;0.00;;;;;;;;5179452;28;8808;-80
2022/08/09 04:35:17;;;;;;;;;0.00;0.00;;;;;;;;5202628;28;8792;-82
2022/08/09 04:37:48;;;;;;;;;0.00;0.00;;;;;;;;5187553;28;8826;-82
2022/08/09 04:40:20;;;;;;;;;0.75;0.75;;;;;;;;5182829;28;8869;-83
2022/08/09 04:42:51;;;;;;;;;0.00;0.00;;;;;;;;5195115;28;8815;-88
2022/08/09 04:45:22;;;;;;;;;0.00;0.00;;;;;;;;5196944;28;8785;-86
2022/08/09 04:47:54;;;;;;;;;0.00;0.00;;;;;;;;5179303;28;8798;-86
2022/08/09 04:50:25;;;;;;;;;0.00;0.00;;;;;;;;5185883;28;8780;-84
2022/08/09 04:53:15;;;;;;;;;0.00;0.00;;;;;;;;5183702;28;8835;-88
2022/08/09 04:55:46;;;;;;;;;0.00;0.00;;;;;;;;5171679;28;8788;-88
2022/08/09 04:58:17;;;;;;;;;0.00;0.00;;;;;;;;5197789;28;8795;-86
2022/08/09 05:01:07;;;;;;;;;0.00;0.00;;;;;;;;5204369;28;9545;-88
2022/08/09 05:03:38;;;;;;;;;0.00;0.00;;;;;;;;5204629;28;8791;-87
2022/08/09 05:06:11;;;;;;;;;0.00;0.00;;;;;;;;5187310;28;8771;-84
2022/08/09 05:08:42;;;;;;;;;0.00;0.00;;;;;;;;5186684;28;8790;-83
2022/08/09 05:11:13;;;;;;;;;0.00;0.00;;;;;;;;5188192;28;8837;-86
2022/08/09 05:13:46;;;;;;;;;1.00;1.00;;;;;;;;5166855;28;8823;-83
2022/08/09 05:16:17;;;;;;;;;0.00;0.00;;;;;;;;5215508;28;8798;-87
2022/08/09 05:19:06;;;;;;;;;0.00;0.00;;;;;;;;5202157;28;8885;-85
2022/08/09 05:21:37;;;;;;;;;0.00;0.00;;;;;;;;5184945;28;8799;-83
2022/08/09 05:24:08;;;;;;;;;0.00;0.00;;;;;;;;5185292;28;8799;-85
2022/08/09 05:26:40;;;;;;;;;1.75;1.75;;;;;;;;5187871;28;8810;-84
2022/08/09 05:29:12;;;;;;;;;0.00;0.00;;;;;;;;5187277;28;8870;-86
2022/08/09 05:31:43;;;;;;;;;0.00;0.00;;;;;;;;5193461;28;8798;-85
2022/08/09 05:34:14;;;;;;;;;0.25;0.25;;;;;;;;5178260;28;8856;-84
2022/08/09 05:36:45;;;;;;;;;0.00;0.00;;;;;;;;5207077;28;8971;-83
2022/08/09 05:39:16;;;;;;;;;0.25;0.25;;;;;;;;5170215;28;8938;-85
2022/08/09 05:41:47;;;;;;;;;0.00;0.00;;;;;;;;5172712;28;8816;-84
2022/08/09 05:44:18;;;;;;;;;0.00;0.00;;;;;;;;5172174;28;8776;-84
2022/08/09 05:46:49;;;;;;;;;0.00;0.00;;;;;;;;5210088;28;8940;-82
2022/08/09 05:49:20;;;;;;;;;2.00;2.00;;;;;;;;5211400;28;8816;-83
2022/08/09 05:51:51;;;;;;;;;0.00;0.00;;;;;;;;5232844;28;8777;-85
2022/08/09 05:54:22;;;;;;;;;0.00;0.00;;;;;;;;5187907;28;8953;-87
2022/08/09 05:56:53;;;;;;;;;0.33;0.33;;;;;;;;5211316;28;8912;-83
2022/08/09 05:59:43;;;;;;;;;0.00;0.00;;;;;;;;5219173;28;9057;-84
2022/08/09 06:02:14;;;;;;;;;0.75;0.75;;;;;;;;5217989;28;8797;-83
2022/08/09 06:04:45;;;;;;;;;0.50;0.50;;;;;;;;5193036;28;8826;-85
2022/08/09 06:07:16;;;;;;;;;0.50;0.50;;;;;;;;5188050;28;8799;-87
2022/08/09 06:09:46;;;;;;;;;2.00;2.00;;;;;;;;5186448;28;8819;-86
2022/08/09 06:12:17;;;;;;;;;4.25;4.25;;;;;;;;5172903;28;11481;-86
2022/08/09 06:15:07;;;;;;;;;0.00;0.00;;;;;;;;5178677;28;8835;-84
2022/08/09 06:17:38;;;;;;;;;1.00;1.00;;;;;;;;5189955;28;8798;-83
2022/08/09 06:20:09;;;;;;;;;1.00;1.00;;;;;;;;5173010;28;8829;-84
2022/08/09 06:22:58;;;;;;;;;0.75;0.75;;;;;;;;5184485;28;8810;-83
2022/08/09 06:25:30;;;;;;;;;0.00;0.00;;;;;;;;5184172;28;8830;-85
2022/08/09 06:28:20;;;;;;;;;0.00;0.00;;;;;;;;5186586;28;8935;-84
2022/08/09 06:30:51;;;;;;;;;0.25;0.25;;;;;;;;5186726;28;8969;-84
2022/08/09 06:33:22;;;;;;;;;2.75;2.75;;;;;;;;5167474;28;8842;-85
2022/08/09 06:35:53;;;;;;;;;1.50;1.50;;;;;;;;5189152;28;8802;-85
2022/08/09 06:38:26;;;;;;;;;1.75;1.75;;;;;;;;5185909;28;8771;-85
2022/08/09 06:40:57;;;;;;;;;0.00;0.00;;;;;;;;5169314;28;8799;-83
2022/08/09 06:43:28;;;;;;;;;1.00;1.00;;;;;;;;5184840;28;11621;-84
2022/08/09 06:45:59;;;;;;;;;2.00;2.00;;;;;;;;5186651;28;11488;-83
2022/08/09 06:48:30;;;;;;;;;0.75;0.75;;;;;;;;5186186;28;11652;-83
2022/08/09 06:51:01;;;;;;;;;1.00;1.00;;;;;;;;5184448;28;8917;-82
2022/08/09 06:53:32;;;;;;;;;2.00;2.00;;;;;;;;5189251;28;8839;-81
2022/08/09 06:56:04;;;;;;;;;1.00;1.00;;;;;;;;5188169;28;11036;-82
2022/08/09 06:58:35;;;;;;;;;1.00;1.00;;;;;;;;5171479;28;8872;-82
2022/08/09 07:01:07;;;;;;;;;1.75;1.75;;;;;;;;5155695;28;8795;-82
2022/08/09 07:03:38;;;;;;;;;2.50;2.50;;;;;;;;5187773;28;8810;-82
2022/08/09 07:06:09;;;;;;;;;1.00;1.00;;;;;;;;5187623;28;8811;-82
2022/08/09 07:08:40;;;;;;;;;1.25;1.25;;;;;;;;5187418;28;9608;-82
2022/08/09 07:11:11;;;;;;;;;1.00;1.00;;;;;;;;5188264;28;8807;-82
2022/08/09 07:13:42;;;;;;;;;1.00;1.00;;;;;;;;5187719;28;8834;-84
2022/08/09 07:16:12;;;;;;;;;2.00;2.00;;;;;;;;5188697;28;10171;-82
2022/08/09 07:18:44;;;;;;;;;5.75;5.75;;;;;;;;5172930;28;8791;-84
2022/08/09 07:21:15;;;;;;;;;1.50;1.50;;;;;;;;5188364;28;8845;-84
2022/08/09 07:23:46;;;;;;;;;0.75;0.75;;;;;;;;5187685;28;8818;-82
2022/08/09 07:26:44;;;;;;;;;1.00;1.00;;;;;;;;5190544;28;8771;-79
2022/08/09 07:29:15;;;;;;;;;1.00;1.00;;;;;;;;5189263;28;8791;-83
2022/08/09 07:31:46;;;;;;;;;1.50;1.50;;;;;;;;5188300;28;8784;-84
2022/08/09 07:34:17;;;;;;;;;1.00;1.00;;;;;;;;5171710;28;9564;-83
2022/08/09 07:36:48;;;;;;;;;2.00;2.00;;;;;;;;5188043;28;8786;-82
2022/08/09 07:39:20;;;;;;;;;1.00;1.00;;;;;;;;5155040;28;8802;-83
2022/08/09 07:41:51;;;;;;;;;1.00;1.00;;;;;;;;5187454;28;8821;-82
2022/08/09 07:44:22;;;;;;;;;2.75;2.75;;;;;;;;5170682;28;8799;-82
2022/08/09 07:46:53;;;;;;;;;3.00;3.00;;;;;;;;5186992;28;8857;-83
2022/08/09 07:49:24;;;;;;;;;3.00;3.00;;;;;;;;5170689;28;8787;-83
2022/08/09 07:51:55;;;;;;;;;2.00;2.00;;;;;;;;5187632;28;9668;-83
2022/08/09 07:54:29;;;;;;;;;2.00;2.00;;;;;;;;5186356;28;9550;-83
2022/08/09 07:57:00;;;;;;;;;2.50;2.50;;;;;;;;5170524;28;8925;-83
2022/08/09 07:59:49;;;;;;;;;1.00;1.00;;;;;;;;5193662;28;9496;-83
2022/08/09 08:02:22;;;;;;;;;2.50;2.50;;;;;;;;5197892;28;8921;-82
2022/08/09 08:04:53;;;;;;;;;2.25;2.25;;;;;;;;5192937;28;8802;-83
2022/08/09 08:07:24;;;;;;;;;4.00;4.00;;;;;;;;5209955;28;8779;-81
2022/08/09 08:09:55;;;;;;;;;3.75;3.75;;;;;;;;5213485;28;8878;-84
2022/08/09 08:12:26;;;;;;;;;3.00;3.00;;;;;;;;5212934;28;8835;-82
2022/08/09 08:14:57;;;;;;;;;4.00;4.00;;;;;;;;5203935;28;8900;-83
2022/08/09 08:17:28;;;;;;;;;4.00;4.00;;;;;;;;5171625;28;8783;-84
2022/08/09 08:19:59;;;;;;;;;4.00;4.00;;;;;;;;5170139;28;8797;-83
2022/08/09 08:22:52;;;;;;;;;5.00;5.00;;;;;;;;5188121;28;8793;-82
2022/08/09 08:25:23;;;;;;;;;5.00;5.00;;;;;;;;5187417;28;8775;-82
2022/08/09 08:27:54;;;;;;;;;4.00;4.00;;;;;;;;5185918;28;8791;-83
2022/08/09 08:30:25;;;;;;;;;4.67;4.67;;;;;;;;5186733;28;8795;-82
2022/08/09 08:32:56;;;;;;;;;7.00;7.00;;;;;;;;5187045;28;9494;-82
2022/08/09 08:35:45;;;;;;;;;5.75;5.75;;;;;;;;5186814;28;11623;-82
2022/08/09 08:38:16;;;;;;;;;5.67;5.67;;;;;;;;5186018;28;8894;-81
2022/08/09 08:40:47;;;;;;;;;2.00;2.00;;;;;;;;5169177;28;11463;-82
2022/08/09 08:43:18;;;;;;;;;4.50;4.50;;;;;;;;5185435;28;8783;-82
2022/08/09 08:45:50;;;;;;;;;4.00;4.00;;;;;;;;5169281;28;8821;-83
2022/08/09 08:48:22;;;;;;;;;4.75;4.75;;;;;;;;5185344;28;9560;-82
2022/08/09 08:50:56;;;;;;;;;4.00;4.00;;;;;;;;5186537;28;8779;-83
2022/08/09 08:53:27;;;;;;;;;6.00;6.00;;;;;;;;5186010;28;8914;-83
2022/08/09 08:55:58;;;;;;;;;4.00;4.00;;;;;;;;5186682;28;12177;-84
2022/08/09 08:58:30;;;;;;;;;4.50;4.50;;;;;;;;5186608;28;9595;-83
2022/08/09 09:01:02;;;;;;;;;4.75;4.75;;;;;;;;5185206;28;9534;-83
2022/08/09 09:03:35;;;;;;;;;4.25;4.25;;;;;;;;5186244;28;8929;-82
2022/08/09 09:06:06;;;;;;;;;6.25;6.25;;;;;;;;5186339;28;9462;-83
2022/08/09 09:08:38;;;;;;;;;6.75;6.75;;;;;;;;5184694;28;8811;-83
2022/08/09 09:11:09;;;;;;;;;7.25;7.25;;;;;;;;5184630;28;8821;-83
2022/08/09 09:13:41;;;;;;;;;6.50;6.50;;;;;;;;5184789;28;8819;-86
2022/08/09 09:16:12;;;;;;;;;5.75;5.75;;;;;;;;5183588;28;8811;-85
2022/08/09 09:18:43;;;;;;;;;5.00;5.00;;;;;;;;5186384;28;8865;-85
2022/08/09 09:21:14;;;;;;;;;8.00;8.00;;;;;;;;5185110;28;11627;-85
2022/08/09 09:23:48;;;;;;;;;8.00;8.00;;;;;;;;5199348;28;11549;-84
2022/08/09 09:26:22;;;;;;;;;6.00;6.00;;;;;;;;5206075;28;8798;-84
2022/08/09 09:29:11;;;;;;;;;8.50;8.50;;;;;;;;5193356;28;8961;-84
2022/08/09 09:32:00;;;;;;;;;8.00;8.00;;;;;;;;5186305;28;8791;-83
2022/08/09 09:34:32;;;;;;;;;6.75;6.75;;;;;;;;5189469;28;8843;-83
2022/08/09 09:37:04;;;;;;;;;5.75;5.75;;;;;;;;5184635;28;8779;-83
2022/08/09 09:39:35;;;;;;;;;8.25;8.25;;;;;;;;5168261;28;8825;-83
2022/08/09 09:42:06;;;;;;;;;5.00;5.00;;;;;;;;5168582;28;8780;-83
2022/08/09 09:44:39;;;;;;;;;7.00;7.00;;;;;;;;5185585;28;10146;-83
2022/08/09 09:47:15;;;;;;;;;8.25;8.25;;;;;;;;5184312;28;8782;-83
2022/08/09 09:49:50;;;;;;;;;8.00;8.00;;;;;;;;5168196;28;8783;-84
2022/08/09 09:52:21;;;;;;;;;5.50;5.50;;;;;;;;5168381;28;9729;-83
2022/08/09 09:54:59;;;;;;;;;9.25;9.25;;;;;;;;5184879;28;8826;-83
2022/08/09 09:58:02;;;;;;;;;8.00;8.00;;;;;;;;5185361;28;8791;-87
2022/08/09 10:00:42;;;;;;;;;11.00;11.00;;;;;;;;5185666;28;9514;-83
2022/08/09 10:03:12;;;;;;;;;8.00;8.00;;;;;;;;5184410;28;8869;-83
2022/08/09 10:05:57;;;;;;;;;9.50;9.50;;;;;;;;5167851;28;8795;-84
2022/08/09 10:08:28;;;;;;;;;9.75;9.75;;;;;;;;5167496;28;8807;-84
2022/08/09 10:10:59;;;;;;;;;7.00;7.00;;;;;;;;5185129;28;8861;-84
2022/08/09 10:13:49;;;;;;;;;9.75;9.75;;;;;;;;5185649;28;8827;-84
2022/08/09 10:16:30;;;;;;;;;7.75;7.75;;;;;;;;5199952;28;8813;-85
2022/08/09 10:19:05;;;;;;;;;5.00;5.00;;;;;;;;5230013;28;8907;-82
2022/08/09 10:21:44;;;;;;;;;6.00;6.00;;;;;;;;5189889;28;8795;-84
2022/08/09 10:24:17;;;;;;;;;9.25;9.25;;;;;;;;5208816;28;8797;-87
2022/08/09 10:26:48;;;;;;;;;6.50;6.50;;;;;;;;5211547;28;8908;-85
2022/08/09 10:29:37;;;;;;;;;9.75;9.75;;;;;;;;5190812;28;8765;-81
2022/08/09 10:32:08;;;;;;;;;19.33;19.33;;;;;;;;5155231;28;8785;-81
2022/08/09 10:34:39;;;;;;;;;10.67;10.67;;;;;;;;5191172;28;8827;-82
2022/08/09 10:37:11;;;;;;;;;12.00;12.00;;;;;;;;5207716;28;11476;-82
2022/08/09 10:39:42;;;;;;;;;9.50;9.50;;;;;;;;5211089;28;8828;-81
2022/08/09 10:42:14;;;;;;;;;9.25;9.25;;;;;;;;5246665;28;8834;-77
2022/08/09 10:45:06;;;;;;;;;11.00;11.00;;;;;;;;5246658;28;9661;-77
2022/08/09 10:47:39;;;;;;;;;9.25;9.25;;;;;;;;5233772;28;8783;-77
2022/08/09 10:50:16;;;;;;;;;9.50;9.50;;;;;;;;5196137;28;8783;-77
2022/08/09 10:52:50;;;;;;;;;11.00;11.00;;;;;;;;5183058;28;8787;-78
2022/08/09 10:55:23;;;;;;;;;11.75;11.75;;;;;;;;5200425;28;8776;-81
2022/08/09 10:57:54;;;;;;;;;9.75;9.75;;;;;;;;5197686;28;8922;-83
2022/08/09 11:00:37;;;;;;;;;8.00;8.00;;;;;;;;5208039;28;8823;-84
2022/08/09 11:03:21;;;;;;;;;8.75;8.75;;;;;;;;5210203;28;8799;-82
2022/08/09 11:06:32;;;;;;;;;9.00;9.00;;;;;;;;5177519;28;8790;-84
2022/08/09 11:09:04;;;;;;;;;9.75;9.75;;;;;;;;5126058;28;9637;-83
2022/08/09 11:11:57;;;;;;;;;13.00;13.00;;;;;;;;5139931;28;8915;-82
2022/08/09 11:14:49;;;;;;;;;12.00;12.00;;;;;;;;5173378;28;8822;-80
2022/08/09 11:17:20;;;;;;;;;11.75;11.75;;;;;;;;5178464;28;8848;-82
2022/08/09 11:20:00;;;;;;;;;10.67;10.67;;;;;;;;5187112;28;8809;-82
2022/08/09 11:22:50;;;;;;;;;10.00;10.00;;;;;;;;5199582;28;12234;-81
2022/08/09 11:25:34;;;;;;;;;10.00;10.00;;;;;;;;5173121;28;8785;-83
2022/08/09 11:28:24;;;;;;;;;12.75;12.75;;;;;;;;5172464;28;8809;-78
2022/08/09 11:30:55;;;;;;;;;11.75;11.75;;;;;;;;5170732;28;9626;-81
2022/08/09 11:33:33;;;;;;;;;12.00;12.00;;;;;;;;5193185;28;8957;-81
2022/08/09 11:36:05;;;;;;;;;9.00;9.00;;;;;;;;5206907;28;11497;-80
2022/08/09 11:38:36;;;;;;;;;29.25;27.50;;;;;;;;5211921;28;8792;-78
2022/08/09 11:41:13;;;;;;;;;14.25;14.25;;;;;;;;5242083;28;8787;-84
2022/08/09 11:43:47;;;;;;;;;12.25;12.25;;;;;;;;5178194;28;8779;-80
2022/08/09 11:46:18;;;;;;;;;11.25;11.25;;;;;;;;5194173;28;8821;-80
2022/08/09 11:48:54;;;;;;;;;10.00;10.00;;;;;;;;5210786;28;9510;-79
2022/08/09 11:51:26;;;;;;;;;8.25;8.25;;;;;;;;5228652;28;8790;-80
2022/08/09 11:54:18;;;;;;;;;11.25;11.25;;;;;;;;5231572;28;8823;-81
2022/08/09 11:56:49;;;;;;;;;12.25;12.25;;;;;;;;5186712;28;8950;-80
2022/08/09 11:59:23;;;;;;;;;11.25;11.25;;;;;;;;5226399;28;8831;-78
2022/08/09 12:02:12;;;;;;;;;9.50;9.50;;;;;;;;5212377;28;8814;-81
2022/08/09 12:04:43;;;;;;;;;13.67;13.67;;;;;;;;5193778;28;8794;-80
2022/08/09 12:07:33;;;;;;;;;10.00;10.00;;;;;;;;5195308;28;8823;-82
2022/08/09 12:10:05;;;;;;;;;12.00;12.00;;;;;;;;5179818;28;8804;-83
2022/08/09 12:12:46;;;;;;;;;12.00;12.00;;;;;;;;5207485;28;9606;-82
2022/08/09 12:15:23;;;;;;;;;11.50;11.50;;;;;;;;5192067;28;8867;-81
2022/08/09 12:17:54;;;;;;;;;5.50;5.50;;;;;;;;5228868;28;8775;-81
2022/08/09 12:20:26;;;;;;;;;6.75;6.75;;;;;;;;5210669;28;8801;-81
2022/08/09 12:23:00;;;;;;;;;10.00;10.00;;;;;;;;5201717;28;8778;-83
2022/08/09 12:25:31;;;;;;;;;9.75;9.75;;;;;;;;5219425;28;8792;-82
2022/08/09 12:28:12;;;;;;;;;10.00;10.00;;;;;;;;5227948;28;8801;-81
2022/08/09 12:31:02;;;;;;;;;10.75;10.75;;;;;;;;5213046;28;9659;-81
2022/08/09 12:33:33;;;;;;;;;11.00;11.00;;;;;;;;5209902;28;8861;-79
2022/08/09 12:36:04;;;;;;;;;10.00;10.00;;;;;;;;5223157;28;8791;-81
2022/08/09 12:38:35;;;;;;;;;12.25;12.25;;;;;;;;5209778;28;8767;-81
2022/08/09 12:41:06;;;;;;;;;10.25;10.25;;;;;;;;5193788;28;8786;-81
2022/08/09 12:43:38;;;;;;;;;5.75;5.75;;;;;;;;5173567;28;8808;-79
2022/08/09 12:46:10;;;;;;;;;9.75;9.75;;;;;;;;5215060;28;8807;-79
2022/08/09 12:49:01;;;;;;;;;10.75;10.75;;;;;;;;5227054;28;8786;-78
2022/08/09 12:51:32;;;;;;;;;9.00;9.00;;;;;;;;5209824;28;8937;-78
2022/08/09 12:54:03;;;;;;;;;10.67;10.67;;;;;;;;5222233;28;9022;-79
2022/08/09 12:56:44;;;;;;;;;10.25;10.25;;;;;;;;5172450;28;11596;-81
2022/08/09 12:59:18;;;;;;;;;10.50;10.50;;;;;;;;5172288;28;9548;-80
2022/08/09 13:01:58;;;;;;;;;4.25;4.25;;;;;;;;5189032;28;8936;-81
2022/08/09 13:04:30;;;;;;;;;13.50;13.50;;;;;;;;5180437;28;8787;-78
2022/08/09 13:07:10;;;;;;;;;11.00;11.00;;;;;;;;5210987;28;8995;-81
2022/08/09 13:09:41;;;;;;;;;8.75;8.75;;;;;;;;5183171;28;8824;-82
2022/08/09 13:12:12;;;;;;;;;8.00;8.00;;;;;;;;5192035;28;8849;-80
2022/08/09 13:14:43;;;;;;;;;8.00;8.00;;;;;;;;5196631;28;8819;-84
2022/08/09 13:17:15;;;;;;;;;11.00;11.00;;;;;;;;5176287;28;9564;-82
2022/08/09 13:20:06;;;;;;;;;10.50;10.50;;;;;;;;5194764;28;10114;-81
2022/08/09 13:22:46;;;;;;;;;7.00;7.00;;;;;;;;5184111;28;8801;-85
2022/08/09 13:25:17;;;;;;;;;13.75;13.75;;;;;;;;5173381;28;8893;-82
2022/08/09 13:27:48;;;;;;;;;7.75;7.75;;;;;;;;5176316;28;8801;-82
2022/08/09 13:30:19;;;;;;;;;18.67;18.67;;;;;;;;5208649;28;8782;-83
2022/08/09 13:32:51;;;;;;;;;5.67;5.67;;;;;;;;5204396;28;10950;-84
2022/08/09 13:35:24;;;;;;;;;10.75;10.75;;;;;;;;5188958;28;9370;-83
2022/08/09 13:37:56;;;;;;;;;10.50;10.25;;;;;;;;5188284;28;8833;-79
2022/08/09 13:40:27;;;;;;;;;9.75;9.75;;;;;;;;5188242;28;8793;-81
2022/08/09 13:42:58;;;;;;;;;10.75;10.75;;;;;;;;5188008;28;8907;-82
2022/08/09 13:45:29;;;;;;;;;14.50;14.50;;;;;;;;5202109;28;8807;-83
2022/08/09 13:48:00;;;;;;;;;13.67;13.33;;;;;;;;5208099;28;8791;-81
2022/08/09 13:50:31;;;;;;;;;17.67;17.67;;;;;;;;5192098;28;11491;-83
2022/08/09 13:53:02;;;;;;;;;18.00;18.00;;;;;;;;5181246;28;11648;-84
2022/08/09 13:55:33;;;;;;;;;29.67;29.00;;;;;;;;5208001;28;8959;-85
2022/08/09 13:58:03;;;;;;;;;42.40;35.60;;;;;;;;5229565;28;8806;-83
2022/08/09 14:00:37;;;;;;;;;28.75;28.00;;;;;;;;5169236;28;8935;-82
2022/08/09 14:03:08;;;;;;;;;26.25;26.25;;;;;;;;5216229;28;8884;-82
2022/08/09 14:05:38;;;;;;;;;11.67;11.67;;;;;;;;5188401;28;8810;-83
2022/08/09 14:08:09;;;;;;;;;6.33;6.33;;;;;;;;5203589;28;10748;-87
2022/08/09 14:10:40;;;;;;;;;19.25;19.25;;;;;;;;5160392;28;12084;-86
2022/08/09 14:13:12;;;;;;;;;25.67;25.00;;;;;;;;5189159;28;8817;-85
2022/08/09 14:16:01;;;;;;;;;35.50;32.00;;;;;;;;5199377;28;12302;-82
2022/08/09 14:18:32;;;;;;;;;14.50;14.50;;;;;;;;5176075;28;8831;-84
2022/08/09 14:21:03;;;;;;;;;12.00;12.00;;;;;;;;5205307;28;8806;-83
2022/08/09 14:23:34;;;;;;;;;12.00;12.00;;;;;;;;5214954;28;9195;-82
2022/08/09 14:26:05;;;;;;;;;11.25;11.25;;;;;;;;5210389;28;11505;-80
2022/08/09 14:28:36;;;;;;;;;17.67;17.67;;;;;;;;5206529;28;8797;-77
2022/08/09 14:31:07;;;;;;;;;10.50;10.50;;;;;;;;5214780;28;12251;-82
2022/08/09 14:33:38;;;;;;;;;14.00;14.00;;;;;;;;5179236;28;8978;-83
2022/08/09 14:36:09;;;;;;;;;15.75;15.75;;;;;;;;5185739;28;8923;-82
2022/08/09 14:38:40;;;;;;;;;20.75;20.25;;;;;;;;5185629;28;8789;-80
2022/08/09 14:41:30;;;;;;;;;17.75;17.50;;;;;;;;5202962;28;8826;-82
2022/08/09 14:44:01;;;;;;;;;17.00;17.00;;;;;;;;5172609;28;8818;-82
2022/08/09 14:46:32;;;;;;;;;14.75;14.75;;;;;;;;5168246;28;9288;-83
2022/08/09 14:49:21;;;;;;;;;19.00;19.00;;;;;;;;5169891;28;8819;-82
2022/08/09 14:51:52;;;;;;;;;45.20;39.00;;;;;;;;5174701;28;8831;-81
2022/08/09 14:54:23;;;;;;;;;14.50;14.00;;;;;;;;5190228;28;8847;-79
2022/08/09 14:56:55;;;;;;;;;11.00;11.00;;;;;;;;5204077;28;8817;-84
2022/08/09 14:59:26;;;;;;;;;12.50;12.50;;;;;;;;5187280;28;9989;-83
2022/08/09 15:01:57;;;;;;;;;16.50;16.50;;;;;;;;5178553;28;8825;-82
2022/08/09 15:04:28;;;;;;;;;23.75;22.50;;;;;;;;5201953;28;8868;-80
2022/08/09 15:06:58;;;;;;;;;10.00;10.00;;;;;;;;5181184;28;8985;-82
2022/08/09 15:09:30;;;;;;;;;9.00;9.00;;;;;;;;5180838;28;8809;-81
2022/08/09 15:12:19;;;;;;;;;4.75;4.75;;;;;;;;5213004;28;8990;-84
2022/08/09 15:14:50;;;;;;;;;10.00;10.00;;;;;;;;5187453;28;8813;-83
2022/08/09 15:17:21;;;;;;;;;13.67;13.67;;;;;;;;5187227;28;10385;-82
2022/08/09 15:19:53;;;;;;;;;15.00;15.00;;;;;;;;5171679;28;8835;-81
2022/08/09 15:22:43;;;;;;;;;12.25;12.25;;;;;;;;5212603;28;9576;-81
2022/08/09 15:25:14;;;;;;;;;9.25;9.25;;;;;;;;5172894;28;8819;-83
2022/08/09 15:28:03;;;;;;;;;9.00;9.00;;;;;;;;5189009;28;8789;-83
2022/08/09 15:30:34;;;;;;;;;10.00;9.50;;;;;;;;5173750;28;8810;-82